Terminal Aerodrome Forecast
Issued by NWS

Home | Current Version | Previous Version | Text Only | Print | Product List | Glossary On
Versions: 1 2 3 4 5 6 7 8 9 10 11 12 13 14 15 16 17 18 19
359
FTUS41 KPBZ 261855 AAA
TAFFKL
TAF AMD
KFKL 261855Z 2619/2718 29008G16KT P6SM SCT040
     FM262300 VRB03KT P6SM SKC
     FM271700 24010G16KT P6SM BKN050=

USA.gov is the U.S. government's official web portal to all federal, state and local government web resources and services.